Mt Bachelor previous 24hr weather report

For range May 5 2015 7:29 AM PDT to May 6 2015 7:29 AM PDT.

Date and time 6300' Base Temp 7800' Pine Temp 8000' Northwest Temp 9000' Summit Temp Base RH Pine RH Summit RH Pine Wind Avg Pine Wind Max Pine Wind Dir Northwest Wind Avg Northwest Wind Max Northwest Wind Dir Summit Wind Avg Summit Wind Max Summit Wind Dir Snowdepth
May 6 2015 7:00 AM PDT 24.0 21.1 n/a 22.75 93 94 79 18 28 133 n/a n/a n/a 20 24 118 147
May 6 2015 6:00 AM PDT 24.31 21.9 n/a 22.69 91 95 78 12 18 156 n/a n/a n/a 28 38 105 146
May 6 2015 5:00 AM PDT 25.52 21.9 n/a 22.71 84 93 77 12 17 143 n/a n/a n/a 30 39 105 146
May 6 2015 4:00 AM PDT 25.74 22.46 n/a 23.74 85 94 74 14 23 128 n/a n/a n/a 27 32 105 146
May 6 2015 3:00 AM PDT 26.28 22.48 n/a 24.78 84 94 72 15 20 114 n/a n/a n/a 22 26 105 146
May 6 2015 2:00 AM PDT 26.5 23.49 n/a 25.52 86 95 69 12 17 129 n/a n/a n/a 21 27 105 146
May 6 2015 1:00 AM PDT 27.49 23.81 n/a 26.44 84 90 55 11 16 128 n/a n/a n/a 26 28 105 146
May 6 2015 12:00 AM PDT 27.67 24.71 n/a 27.8 81 89 52 11 16 128 n/a n/a n/a 21 24 105 146
May 5 2015 11:00 PM PDT 28.29 25.58 n/a 28.42 84 89 67 9 16 146 n/a n/a n/a 21 28 105 146
May 5 2015 10:00 PM PDT 28.91 26.19 n/a 28.5 84 94 73 15 21 127 n/a n/a n/a 24 29 105 146
May 5 2015 9:00 PM PDT 30.31 27.45 n/a 29.89 81 91 68 16 22 146 n/a n/a n/a 30 32 105 147
May 5 2015 8:00 PM PDT 32.12 30.21 n/a 32.28 69 74 64 13 18 151 n/a n/a n/a 28 35 105 146
May 5 2015 7:00 PM PDT 35.14 32.41 n/a 32.97 60 69 62 13 23 140 n/a n/a n/a 29 37 105 146
May 5 2015 6:00 PM PDT 36.96 33.69 n/a 34.82 54 66 57 11 19 142 n/a n/a n/a 29 37 105 146
May 5 2015 5:00 PM PDT 38.9 35.43 n/a 36.09 54 59 55 12 20 153 n/a n/a n/a 30 39 105 146
May 5 2015 4:00 PM PDT 40.27 35.8 n/a 36.59 48 55 53 9 16 150 n/a n/a n/a 24 33 105 146
May 5 2015 3:00 PM PDT 39.96 35.84 n/a 36.91 44 56 49 6 12 136 n/a n/a n/a 20 27 105 146
May 5 2015 2:00 PM PDT 38.52 34.77 n/a 34.65 44 52 46 11 17 131 n/a n/a n/a 7 14 105 146
May 5 2015 1:00 PM PDT 38.96 33.66 n/a n/a 48 58 n/a 9 16 138 n/a n/a n/a n/a n/a n/a 145
May 5 2015 12:00 PM PDT 36.61 32.01 n/a 30.63 59 64 42 11 17 150 n/a n/a n/a 21 29 105 144
May 5 2015 11:00 AM PDT 36.63 30.3 n/a 30.72 57 61 43 12 16 155 n/a n/a n/a 22 28 105 144
May 5 2015 10:00 AM PDT 33.06 28.09 n/a 30.46 63 59 40 13 20 158 n/a n/a n/a 24 27 105 143
May 5 2015 9:00 AM PDT 30.37 24.74 n/a 28.91 69 77 40 17 24 152 n/a n/a n/a 28 33 105 144
May 5 2015 8:00 AM PDT 27.2 22.74 n/a 24.53 89 93 37 17 25 152 n/a n/a n/a 54 57 105 144